Aviation Digital Data Service (ADDS)

Output produced by METARs form (1402 UTC 27 June 2017)
found at http://aviationweather.gov/adds/metars/
 
KBTV 271121Z 2712/2812 19008KT P6SM SCT120 
     FM271600 20008KT P6SM VCSH BKN060 
     TEMPO 2717/2721 VRB25G35KT 4SM SHRA BR BKN030 
     FM280200 18004KT P6SM SCT040